sensor_id;sensor_type;location;lat;lon;timestamp;P1;durP1;ratioP1;P2;durP2;ratioP2
43990;SDS011;29654;50.784;20.604;2023-01-05T00:00:38;4.00;;;3.60;;
43990;SDS011;29654;50.784;20.604;2023-01-05T00:05:42;4.68;;;3.50;;
43990;SDS011;29654;50.784;20.604;2023-01-05T00:10:44;4.53;;;3.50;;
43990;SDS011;29654;50.784;20.604;2023-01-05T00:16:07;3.90;;;3.47;;
43990;SDS011;29654;50.784;20.604;2023-01-05T00:21:32;3.95;;;3.55;;
43990;SDS011;29654;50.784;20.604;2023-01-05T00:26:52;5.05;;;3.47;;
43990;SDS011;29654;50.784;20.604;2023-01-05T00:31:55;3.65;;;3.20;;
43990;SDS011;29654;50.784;20.604;2023-01-05T00:36:59;4.07;;;3.28;;
43990;SDS011;29654;50.784;20.604;2023-01-05T00:42:01;3.20;;;2.90;;
43990;SDS011;29654;50.784;20.604;2023-01-05T00:47:04;3.63;;;2.90;;
43990;SDS011;29654;50.784;20.604;2023-01-05T00:52:08;3.63;;;3.33;;
43990;SDS011;29654;50.784;20.604;2023-01-05T00:57:11;3.15;;;2.78;;
43990;SDS011;29654;50.784;20.604;2023-01-05T01:02:14;3.13;;;2.83;;
43990;SDS011;29654;50.784;20.604;2023-01-05T01:07:18;2.90;;;2.60;;
43990;SDS011;29654;50.784;20.604;2023-01-05T01:12:21;5.80;;;2.80;;
43990;SDS011;29654;50.784;20.604;2023-01-05T01:17:24;3.30;;;2.80;;
43990;SDS011;29654;50.784;20.604;2023-01-05T01:22:28;2.67;;;2.47;;
43990;SDS011;29654;50.784;20.604;2023-01-05T01:27:30;3.35;;;2.80;;
43990;SDS011;29654;50.784;20.604;2023-01-05T01:32:34;2.88;;;2.40;;
43990;SDS011;29654;50.784;20.604;2023-01-05T01:37:38;2.50;;;2.30;;
43990;SDS011;29654;50.784;20.604;2023-01-05T01:42:41;3.80;;;2.58;;
43990;SDS011;29654;50.784;20.604;2023-01-05T01:47:44;3.20;;;2.20;;
43990;SDS011;29654;50.784;20.604;2023-01-05T01:52:53;3.67;;;2.42;;
43990;SDS011;29654;50.784;20.604;2023-01-05T01:58:00;2.90;;;2.22;;
43990;SDS011;29654;50.784;20.604;2023-01-05T02:03:06;3.05;;;2.33;;
43990;SDS011;29654;50.784;20.604;2023-01-05T02:08:12;2.55;;;2.35;;
43990;SDS011;29654;50.784;20.604;2023-01-05T02:13:35;2.72;;;2.40;;
43990;SDS011;29654;50.784;20.604;2023-01-05T02:18:55;4.38;;;2.60;;
43990;SDS011;29654;50.784;20.604;2023-01-05T02:36:12;3.38;;;2.50;;
43990;SDS011;29654;50.784;20.604;2023-01-05T02:41:25;2.83;;;2.38;;
43990;SDS011;29654;50.784;20.604;2023-01-05T02:46:37;2.88;;;2.15;;
43990;SDS011;29654;50.784;20.604;2023-01-05T02:51:41;2.70;;;2.45;;
43990;SDS011;29654;50.784;20.604;2023-01-05T02:56:50;4.35;;;2.50;;
43990;SDS011;29654;50.784;20.604;2023-01-05T03:01:59;2.72;;;2.53;;
43990;SDS011;29654;50.784;20.604;2023-01-05T03:07:07;3.20;;;2.47;;
43990;SDS011;29654;50.784;20.604;2023-01-05T03:12:15;2.70;;;2.50;;
43990;SDS011;29654;50.784;20.604;2023-01-05T03:17:44;2.33;;;2.10;;
43990;SDS011;29654;50.784;20.604;2023-01-05T03:22:51;3.15;;;2.42;;
43990;SDS011;29654;50.784;20.604;2023-01-05T03:28:15;2.30;;;2.03;;
43990;SDS011;29654;50.784;20.604;2023-01-05T03:33:42;3.03;;;2.35;;
43990;SDS011;29654;50.784;20.604;2023-01-05T03:39:07;2.72;;;2.28;;
43990;SDS011;29654;50.784;20.604;2023-01-05T03:44:13;2.15;;;1.95;;
43990;SDS011;29654;50.784;20.604;2023-01-05T03:49:18;2.35;;;1.95;;
43990;SDS011;29654;50.784;20.604;2023-01-05T03:54:23;2.47;;;1.92;;
43990;SDS011;29654;50.784;20.604;2023-01-05T03:59:26;2.03;;;1.83;;
43990;SDS011;29654;50.784;20.604;2023-01-05T04:04:30;2.88;;;1.70;;
43990;SDS011;29654;50.784;20.604;2023-01-05T04:09:36;2.28;;;1.77;;
43990;SDS011;29654;50.784;20.604;2023-01-05T04:14:39;1.70;;;1.60;;
43990;SDS011;29654;50.784;20.604;2023-01-05T04:19:43;1.83;;;1.70;;
43990;SDS011;29654;50.784;20.604;2023-01-05T04:24:46;1.60;;;1.50;;
43990;SDS011;29654;50.784;20.604;2023-01-05T04:29:49;2.00;;;1.60;;
43990;SDS011;29654;50.784;20.604;2023-01-05T04:34:53;1.92;;;1.63;;
43990;SDS011;29654;50.784;20.604;2023-01-05T04:39:55;1.67;;;1.58;;
43990;SDS011;29654;50.784;20.604;2023-01-05T04:44:59;2.15;;;1.55;;
43990;SDS011;29654;50.784;20.604;2023-01-05T04:50:03;2.78;;;1.70;;
43990;SDS011;29654;50.784;20.604;2023-01-05T04:55:08;1.80;;;1.50;;
43990;SDS011;29654;50.784;20.604;2023-01-05T05:00:13;1.73;;;1.10;;
43990;SDS011;29654;50.784;20.604;2023-01-05T05:05:18;1.58;;;1.00;;
43990;SDS011;29654;50.784;20.604;2023-01-05T05:10:25;1.67;;;0.90;;
43990;SDS011;29654;50.784;20.604;2023-01-05T05:15:28;1.98;;;1.20;;
43990;SDS011;29654;50.784;20.604;2023-01-05T05:20:33;1.20;;;1.08;;
43990;SDS011;29654;50.784;20.604;2023-01-05T05:25:35;2.50;;;1.00;;
43990;SDS011;29654;50.784;20.604;2023-01-05T05:30:38;1.10;;;0.70;;
43990;SDS011;29654;50.784;20.604;2023-01-05T05:35:42;1.35;;;0.65;;
43990;SDS011;29654;50.784;20.604;2023-01-05T05:40:46;1.50;;;0.70;;
43990;SDS011;29654;50.784;20.604;2023-01-05T05:45:49;0.75;;;0.50;;
43990;SDS011;29654;50.784;20.604;2023-01-05T05:50:53;1.63;;;0.70;;
43990;SDS011;29654;50.784;20.604;2023-01-05T05:56:01;2.58;;;0.93;;
43990;SDS011;29654;50.784;20.604;2023-01-05T06:01:04;2.35;;;0.90;;
43990;SDS011;29654;50.784;20.604;2023-01-05T06:06:08;0.88;;;0.85;;
43990;SDS011;29654;50.784;20.604;2023-01-05T06:11:11;1.52;;;0.60;;
43990;SDS011;29654;50.784;20.604;2023-01-05T06:16:14;2.95;;;0.68;;
43990;SDS011;29654;50.784;20.604;2023-01-05T06:21:18;1.55;;;0.80;;
43990;SDS011;29654;50.784;20.604;2023-01-05T06:26:21;1.90;;;0.70;;
43990;SDS011;29654;50.784;20.604;2023-01-05T06:31:23;0.80;;;0.60;;
43990;SDS011;29654;50.784;20.604;2023-01-05T06:36:27;1.10;;;0.45;;
43990;SDS011;29654;50.784;20.604;2023-01-05T06:41:30;0.75;;;0.47;;
43990;SDS011;29654;50.784;20.604;2023-01-05T06:46:34;0.95;;;0.65;;
43990;SDS011;29654;50.784;20.604;2023-01-05T06:51:38;1.13;;;0.70;;
43990;SDS011;29654;50.784;20.604;2023-01-05T06:56:40;0.95;;;0.70;;
43990;SDS011;29654;50.784;20.604;2023-01-05T07:01:43;1.08;;;0.80;;
43990;SDS011;29654;50.784;20.604;2023-01-05T07:06:47;0.68;;;0.50;;
43990;SDS011;29654;50.784;20.604;2023-01-05T07:11:49;1.15;;;0.60;;
43990;SDS011;29654;50.784;20.604;2023-01-05T07:16:52;0.68;;;0.50;;
43990;SDS011;29654;50.784;20.604;2023-01-05T07:21:56;1.67;;;0.52;;
43990;SDS011;29654;50.784;20.604;2023-01-05T07:26:58;1.00;;;0.85;;
43990;SDS011;29654;50.784;20.604;2023-01-05T07:32:01;4.97;;;1.10;;
43990;SDS011;29654;50.784;20.604;2023-01-05T07:37:05;1.92;;;0.80;;
43990;SDS011;29654;50.784;20.604;2023-01-05T07:42:08;1.00;;;0.80;;
43990;SDS011;29654;50.784;20.604;2023-01-05T07:47:11;0.77;;;0.77;;
43990;SDS011;29654;50.784;20.604;2023-01-05T07:52:15;0.85;;;0.70;;
43990;SDS011;29654;50.784;20.604;2023-01-05T07:57:17;1.50;;;0.80;;
43990;SDS011;29654;50.784;20.604;2023-01-05T08:02:20;1.00;;;0.80;;
43990;SDS011;29654;50.784;20.604;2023-01-05T08:07:24;1.42;;;0.80;;
43990;SDS011;29654;50.784;20.604;2023-01-05T08:12:27;1.38;;;0.80;;
43990;SDS011;29654;50.784;20.604;2023-01-05T08:17:30;0.93;;;0.80;;
43990;SDS011;29654;50.784;20.604;2023-01-05T08:22:34;1.70;;;0.82;;
43990;SDS011;29654;50.784;20.604;2023-01-05T08:27:36;1.45;;;0.90;;
43990;SDS011;29654;50.784;20.604;2023-01-05T08:32:39;2.05;;;1.00;;
43990;SDS011;29654;50.784;20.604;2023-01-05T08:37:44;1.35;;;1.02;;
43990;SDS011;29654;50.784;20.604;2023-01-05T08:42:47;1.17;;;0.98;;
43990;SDS011;29654;50.784;20.604;2023-01-05T08:47:49;1.90;;;0.90;;
43990;SDS011;29654;50.784;20.604;2023-01-05T08:52:53;2.63;;;1.30;;
43990;SDS011;29654;50.784;20.604;2023-01-05T08:57:56;1.52;;;1.00;;
43990;SDS011;29654;50.784;20.604;2023-01-05T09:02:58;1.88;;;1.02;;
43990;SDS011;29654;50.784;20.604;2023-01-05T09:08:02;2.00;;;1.30;;
43990;SDS011;29654;50.784;20.604;2023-01-05T09:13:05;1.58;;;1.00;;
43990;SDS011;29654;50.784;20.604;2023-01-05T09:18:09;1.88;;;1.20;;
43990;SDS011;29654;50.784;20.604;2023-01-05T09:23:13;1.38;;;1.05;;
43990;SDS011;29654;50.784;20.604;2023-01-05T09:28:16;1.88;;;0.85;;
43990;SDS011;29654;50.784;20.604;2023-01-05T09:33:19;2.13;;;1.10;;
43990;SDS011;29654;50.784;20.604;2023-01-05T09:38:23;1.10;;;0.90;;
43990;SDS011;29654;50.784;20.604;2023-01-05T09:43:25;3.90;;;1.30;;
43990;SDS011;29654;50.784;20.604;2023-01-05T09:48:35;2.35;;;1.20;;
43990;SDS011;29654;50.784;20.604;2023-01-05T09:53:43;3.30;;;1.30;;
43990;SDS011;29654;50.784;20.604;2023-01-05T09:58:46;4.55;;;0.95;;
43990;SDS011;29654;50.784;20.604;2023-01-05T10:03:53;2.38;;;0.80;;
43990;SDS011;29654;50.784;20.604;2023-01-05T10:09:02;2.28;;;0.90;;
43990;SDS011;29654;50.784;20.604;2023-01-05T10:14:09;2.08;;;0.80;;
43990;SDS011;29654;50.784;20.604;2023-01-05T10:19:17;1.92;;;1.08;;
43990;SDS011;29654;50.784;20.604;2023-01-05T10:24:25;1.15;;;0.80;;
43990;SDS011;29654;50.784;20.604;2023-01-05T10:29:43;1.40;;;0.93;;
43990;SDS011;29654;50.784;20.604;2023-01-05T10:34:51;1.08;;;0.90;;
43990;SDS011;29654;50.784;20.604;2023-01-05T10:40:06;1.83;;;1.33;;
43990;SDS011;29654;50.784;20.604;2023-01-05T10:45:18;0.95;;;0.77;;
43990;SDS011;29654;50.784;20.604;2023-01-05T10:50:26;1.27;;;0.93;;
43990;SDS011;29654;50.784;20.604;2023-01-05T10:55:40;0.88;;;0.80;;
43990;SDS011;29654;50.784;20.604;2023-01-05T11:00:55;1.33;;;0.93;;
43990;SDS011;29654;50.784;20.604;2023-01-05T11:06:01;0.93;;;0.80;;
43990;SDS011;29654;50.784;20.604;2023-01-05T11:11:06;1.33;;;0.85;;
43990;SDS011;29654;50.784;20.604;2023-01-05T11:16:09;3.08;;;1.10;;
43990;SDS011;29654;50.784;20.604;2023-01-05T11:21:15;1.67;;;1.02;;
43990;SDS011;29654;50.784;20.604;2023-01-05T11:31:51;1.65;;;0.95;;
43990;SDS011;29654;50.784;20.604;2023-01-05T11:36:56;2.30;;;1.08;;
43990;SDS011;29654;50.784;20.604;2023-01-05T11:42:16;1.17;;;0.85;;
43990;SDS011;29654;50.784;20.604;2023-01-05T11:47:23;1.30;;;0.80;;
43990;SDS011;29654;50.784;20.604;2023-01-05T11:52:33;1.08;;;0.77;;
43990;SDS011;29654;50.784;20.604;2023-01-05T11:57:39;0.70;;;0.60;;
43990;SDS011;29654;50.784;20.604;2023-01-05T12:02:58;0.65;;;0.60;;
43990;SDS011;29654;50.784;20.604;2023-01-05T12:08:30;0.93;;;0.75;;
43990;SDS011;29654;50.784;20.604;2023-01-05T12:13:50;1.30;;;0.95;;
43990;SDS011;29654;50.784;20.604;2023-01-05T12:25:02;1.52;;;0.90;;
43990;SDS011;29654;50.784;20.604;2023-01-05T12:30:19;1.30;;;1.00;;
43990;SDS011;29654;50.784;20.604;2023-01-05T12:35:34;1.48;;;0.95;;
43990;SDS011;29654;50.784;20.604;2023-01-05T12:41:22;1.35;;;0.93;;
43990;SDS011;29654;50.784;20.604;2023-01-05T12:46:47;2.08;;;1.23;;
43990;SDS011;29654;50.784;20.604;2023-01-05T12:52:16;0.88;;;0.80;;
43990;SDS011;29654;50.784;20.604;2023-01-05T12:57:28;1.23;;;0.80;;
43990;SDS011;29654;50.784;20.604;2023-01-05T13:02:37;2.97;;;1.45;;
43990;SDS011;29654;50.784;20.604;2023-01-05T13:07:46;1.38;;;1.05;;
43990;SDS011;29654;50.784;20.604;2023-01-05T13:12:54;2.58;;;1.10;;
43990;SDS011;29654;50.784;20.604;2023-01-05T13:18:02;2.03;;;1.40;;
43990;SDS011;29654;50.784;20.604;2023-01-05T13:23:10;2.23;;;1.63;;
43990;SDS011;29654;50.784;20.604;2023-01-05T13:28:19;1.30;;;1.10;;
43990;SDS011;29654;50.784;20.604;2023-01-05T13:33:33;1.30;;;1.00;;
43990;SDS011;29654;50.784;20.604;2023-01-05T13:39:09;1.70;;;0.98;;
43990;SDS011;29654;50.784;20.604;2023-01-05T13:56:14;4.15;;;1.25;;
43990;SDS011;29654;50.784;20.604;2023-01-05T14:01:32;1.20;;;1.00;;
43990;SDS011;29654;50.784;20.604;2023-01-05T14:06:39;1.10;;;1.00;;
43990;SDS011;29654;50.784;20.604;2023-01-05T14:22:53;1.70;;;0.90;;
43990;SDS011;29654;50.784;20.604;2023-01-05T14:28:16;1.27;;;0.80;;
43990;SDS011;29654;50.784;20.604;2023-01-05T14:33:44;1.38;;;1.00;;
43990;SDS011;29654;50.784;20.604;2023-01-05T14:38:50;1.35;;;0.80;;
43990;SDS011;29654;50.784;20.604;2023-01-05T14:43:54;1.52;;;1.10;;
43990;SDS011;29654;50.784;20.604;2023-01-05T14:49:02;3.28;;;1.50;;
43990;SDS011;29654;50.784;20.604;2023-01-05T14:54:10;1.65;;;1.35;;
43990;SDS011;29654;50.784;20.604;2023-01-05T14:59:15;2.20;;;1.60;;
43990;SDS011;29654;50.784;20.604;2023-01-05T15:04:24;2.20;;;1.30;;
43990;SDS011;29654;50.784;20.604;2023-01-05T15:09:58;1.88;;;1.40;;
43990;SDS011;29654;50.784;20.604;2023-01-05T15:26:32;4.75;;;1.38;;
43990;SDS011;29654;50.784;20.604;2023-01-05T15:31:47;2.05;;;1.27;;
43990;SDS011;29654;50.784;20.604;2023-01-05T15:36:55;1.73;;;1.20;;
43990;SDS011;29654;50.784;20.604;2023-01-05T15:42:06;1.48;;;1.35;;
43990;SDS011;29654;50.784;20.604;2023-01-05T15:47:09;2.45;;;1.48;;
43990;SDS011;29654;50.784;20.604;2023-01-05T15:52:20;2.17;;;1.30;;
43990;SDS011;29654;50.784;20.604;2023-01-05T15:57:31;1.80;;;1.30;;
43990;SDS011;29654;50.784;20.604;2023-01-05T16:02:34;3.60;;;1.73;;
43990;SDS011;29654;50.784;20.604;2023-01-05T16:07:39;2.17;;;1.70;;
43990;SDS011;29654;50.784;20.604;2023-01-05T16:12:45;1.60;;;1.40;;
43990;SDS011;29654;50.784;20.604;2023-01-05T16:17:51;2.40;;;1.42;;
43990;SDS011;29654;50.784;20.604;2023-01-05T16:22:58;1.75;;;0.98;;
43990;SDS011;29654;50.784;20.604;2023-01-05T16:28:15;3.60;;;1.30;;
43990;SDS011;29654;50.784;20.604;2023-01-05T16:33:21;1.85;;;1.55;;
43990;SDS011;29654;50.784;20.604;2023-01-05T16:38:34;2.78;;;1.60;;
43990;SDS011;29654;50.784;20.604;2023-01-05T16:43:41;2.00;;;1.50;;
43990;SDS011;29654;50.784;20.604;2023-01-05T16:48:50;1.88;;;1.40;;
43990;SDS011;29654;50.784;20.604;2023-01-05T16:53:55;2.90;;;1.35;;
43990;SDS011;29654;50.784;20.604;2023-01-05T17:04:51;2.53;;;1.40;;
43990;SDS011;29654;50.784;20.604;2023-01-05T17:09:54;1.58;;;1.13;;
43990;SDS011;29654;50.784;20.604;2023-01-05T17:14:59;2.00;;;1.65;;
43990;SDS011;29654;50.784;20.604;2023-01-05T17:20:03;6.00;;;1.98;;
43990;SDS011;29654;50.784;20.604;2023-01-05T17:25:10;4.13;;;1.70;;
43990;SDS011;29654;50.784;20.604;2023-01-05T17:30:17;3.17;;;1.80;;
43990;SDS011;29654;50.784;20.604;2023-01-05T17:35:21;3.50;;;1.80;;
43990;SDS011;29654;50.784;20.604;2023-01-05T17:40:24;2.60;;;1.60;;
43990;SDS011;29654;50.784;20.604;2023-01-05T17:45:29;2.72;;;1.90;;
43990;SDS011;29654;50.784;20.604;2023-01-05T17:50:33;2.55;;;1.77;;
43990;SDS011;29654;50.784;20.604;2023-01-05T17:55:35;3.55;;;2.15;;
43990;SDS011;29654;50.784;20.604;2023-01-05T18:00:40;3.42;;;2.28;;
43990;SDS011;29654;50.784;20.604;2023-01-05T18:05:45;5.30;;;2.75;;
43990;SDS011;29654;50.784;20.604;2023-01-05T18:10:48;2.83;;;2.38;;
43990;SDS011;29654;50.784;20.604;2023-01-05T18:15:52;2.42;;;2.20;;
43990;SDS011;29654;50.784;20.604;2023-01-05T18:20:57;3.38;;;2.13;;
43990;SDS011;29654;50.784;20.604;2023-01-05T18:26:01;3.38;;;2.03;;
43990;SDS011;29654;50.784;20.604;2023-01-05T18:31:09;3.75;;;2.25;;
43990;SDS011;29654;50.784;20.604;2023-01-05T18:36:13;3.03;;;2.22;;
43990;SDS011;29654;50.784;20.604;2023-01-05T18:41:16;3.47;;;1.90;;
43990;SDS011;29654;50.784;20.604;2023-01-05T18:46:24;2.50;;;1.85;;
43990;SDS011;29654;50.784;20.604;2023-01-05T18:51:29;3.60;;;2.60;;
43990;SDS011;29654;50.784;20.604;2023-01-05T18:56:32;2.90;;;2.40;;
43990;SDS011;29654;50.784;20.604;2023-01-05T19:01:36;2.75;;;2.22;;
43990;SDS011;29654;50.784;20.604;2023-01-05T19:06:42;1.73;;;1.58;;
43990;SDS011;29654;50.784;20.604;2023-01-05T19:11:45;1.63;;;1.45;;
43990;SDS011;29654;50.784;20.604;2023-01-05T19:16:49;2.03;;;1.70;;
43990;SDS011;29654;50.784;20.604;2023-01-05T19:21:53;1.65;;;1.33;;
43990;SDS011;29654;50.784;20.604;2023-01-05T19:26:56;1.65;;;1.50;;
43990;SDS011;29654;50.784;20.604;2023-01-05T19:32:00;2.35;;;1.75;;
43990;SDS011;29654;50.784;20.604;2023-01-05T19:37:03;2.15;;;1.80;;
43990;SDS011;29654;50.784;20.604;2023-01-05T19:42:06;3.00;;;2.47;;
43990;SDS011;29654;50.784;20.604;2023-01-05T19:47:09;5.28;;;3.53;;
43990;SDS011;29654;50.784;20.604;2023-01-05T19:52:12;7.53;;;5.18;;
43990;SDS011;29654;50.784;20.604;2023-01-05T19:57:14;9.07;;;6.22;;
43990;SDS011;29654;50.784;20.604;2023-01-05T20:02:18;4.60;;;3.35;;
43990;SDS011;29654;50.784;20.604;2023-01-05T20:07:21;6.05;;;4.15;;
43990;SDS011;29654;50.784;20.604;2023-01-05T20:12:24;2.70;;;2.50;;
43990;SDS011;29654;50.784;20.604;2023-01-05T20:17:28;4.05;;;2.92;;
43990;SDS011;29654;50.784;20.604;2023-01-05T20:22:32;2.65;;;2.45;;
43990;SDS011;29654;50.784;20.604;2023-01-05T20:27:35;2.25;;;2.05;;
43990;SDS011;29654;50.784;20.604;2023-01-05T20:32:40;3.25;;;2.55;;
43990;SDS011;29654;50.784;20.604;2023-01-05T20:37:42;2.10;;;1.70;;
43990;SDS011;29654;50.784;20.604;2023-01-05T20:42:45;2.85;;;1.63;;
43990;SDS011;29654;50.784;20.604;2023-01-05T20:47:49;1.90;;;1.70;;
43990;SDS011;29654;50.784;20.604;2023-01-05T20:52:51;1.80;;;1.52;;
43990;SDS011;29654;50.784;20.604;2023-01-05T20:57:54;1.75;;;1.65;;
43990;SDS011;29654;50.784;20.604;2023-01-05T21:02:58;1.77;;;1.63;;
43990;SDS011;29654;50.784;20.604;2023-01-05T21:08:00;2.40;;;2.20;;
43990;SDS011;29654;50.784;20.604;2023-01-05T21:13:03;3.28;;;1.70;;
43990;SDS011;29654;50.784;20.604;2023-01-05T21:18:07;1.80;;;1.70;;
43990;SDS011;29654;50.784;20.604;2023-01-05T21:23:09;2.22;;;2.03;;
43990;SDS011;29654;50.784;20.604;2023-01-05T21:28:12;4.22;;;3.00;;
43990;SDS011;29654;50.784;20.604;2023-01-05T21:33:17;2.85;;;2.65;;
43990;SDS011;29654;50.784;20.604;2023-01-05T21:38:19;3.25;;;2.80;;
43990;SDS011;29654;50.784;20.604;2023-01-05T21:43:22;3.75;;;2.60;;
43990;SDS011;29654;50.784;20.604;2023-01-05T21:48:27;3.65;;;2.55;;
43990;SDS011;29654;50.784;20.604;2023-01-05T21:53:29;3.38;;;2.70;;
43990;SDS011;29654;50.784;20.604;2023-01-05T21:58:49;2.85;;;2.60;;
43990;SDS011;29654;50.784;20.604;2023-01-05T22:03:53;3.75;;;2.65;;
43990;SDS011;29654;50.784;20.604;2023-01-05T22:08:57;4.68;;;3.00;;
43990;SDS011;29654;50.784;20.604;2023-01-05T22:13:59;3.22;;;2.92;;
43990;SDS011;29654;50.784;20.604;2023-01-05T22:19:03;4.20;;;2.97;;
43990;SDS011;29654;50.784;20.604;2023-01-05T22:24:06;4.40;;;3.30;;
43990;SDS011;29654;50.784;20.604;2023-01-05T22:29:09;2.65;;;2.17;;
43990;SDS011;29654;50.784;20.604;2023-01-05T22:34:13;3.05;;;2.58;;
43990;SDS011;29654;50.784;20.604;2023-01-05T22:39:16;2.50;;;2.30;;
43990;SDS011;29654;50.784;20.604;2023-01-05T22:44:19;2.17;;;1.77;;
43990;SDS011;29654;50.784;20.604;2023-01-05T22:49:23;2.42;;;2.10;;
43990;SDS011;29654;50.784;20.604;2023-01-05T22:54:27;2.10;;;1.90;;
43990;SDS011;29654;50.784;20.604;2023-01-05T22:59:30;3.40;;;2.55;;
43990;SDS011;29654;50.784;20.604;2023-01-05T23:04:35;2.80;;;2.47;;
43990;SDS011;29654;50.784;20.604;2023-01-05T23:09:37;2.88;;;2.50;;
43990;SDS011;29654;50.784;20.604;2023-01-05T23:14:41;2.47;;;2.28;;
43990;SDS011;29654;50.784;20.604;2023-01-05T23:19:45;2.83;;;2.20;;
43990;SDS011;29654;50.784;20.604;2023-01-05T23:24:48;2.55;;;2.35;;
43990;SDS011;29654;50.784;20.604;2023-01-05T23:29:50;3.67;;;2.40;;
43990;SDS011;29654;50.784;20.604;2023-01-05T23:34:54;2.30;;;2.10;;
43990;SDS011;29654;50.784;20.604;2023-01-05T23:39:57;2.15;;;1.95;;
43990;SDS011;29654;50.784;20.604;2023-01-05T23:45:00;3.13;;;2.53;;
43990;SDS011;29654;50.784;20.604;2023-01-05T23:50:04;4.10;;;2.47;;
43990;SDS011;29654;50.784;20.604;2023-01-05T23:55:08;2.90;;;2.30;;
